createdAt,value
2022-10-09T00:00:53.067Z,99.99
2022-10-09T00:01:53.077Z,99.99
2022-10-09T00:02:52.981Z,99.99
2022-10-09T00:03:52.951Z,99.99
2022-10-09T00:04:52.937Z,99.99
2022-10-09T00:05:52.853Z,99.99
2022-10-09T00:06:52.811Z,99.99
2022-10-09T00:07:52.767Z,99.99
2022-10-09T00:08:52.738Z,99.99
2022-10-09T00:09:52.682Z,99.99
2022-10-09T00:10:52.642Z,99.99
2022-10-09T00:11:52.609Z,99.99
2022-10-09T00:12:52.555Z,99.99
2022-10-09T00:13:52.509Z,99.99
2022-10-09T00:14:52.466Z,99.99
2022-10-09T00:15:52.434Z,99.99
2022-10-09T00:16:52.445Z,99.99
2022-10-09T00:17:52.342Z,99.99
2022-10-09T00:18:52.304Z,99.99
2022-10-09T00:19:52.252Z,99.99
2022-10-09T00:20:52.209Z,99.99
2022-10-09T00:21:52.165Z,99.99
2022-10-09T00:22:52.133Z,99.99
2022-10-09T00:23:52.091Z,99.99
2022-10-09T00:24:52.034Z,99.99
2022-10-09T00:25:51.997Z,99.99
2022-10-09T00:26:51.949Z,99.99
2022-10-09T00:27:51.907Z,99.99
2022-10-09T00:28:51.912Z,99.99
2022-10-09T00:29:51.850Z,99.99
2022-10-09T00:30:51.816Z,99.99
2022-10-09T00:31:51.735Z,99.99
2022-10-09T00:32:51.691Z,99.99
2022-10-09T00:33:51.648Z,99.99
2022-10-09T00:34:51.605Z,99.99
2022-10-09T00:35:51.573Z,99.99
2022-10-09T00:36:51.519Z,99.99
2022-10-09T00:37:51.477Z,99.99
2022-10-09T00:38:51.434Z,99.99
2022-10-09T00:39:51.391Z,99.99
2022-10-09T00:40:51.346Z,99.99
2022-10-09T00:41:51.318Z,99.99
2022-10-09T00:42:51.733Z,99.99
2022-10-09T00:43:51.219Z,99.99
2022-10-09T00:44:51.176Z,99.99
2022-10-09T00:45:51.157Z,99.99
2022-10-09T00:46:51.089Z,99.99
2022-10-09T00:47:51.055Z,99.99
2022-10-09T00:48:51.002Z,99.99
2022-10-09T00:49:50.960Z,99.99
2022-10-09T00:50:50.917Z,99.99
2022-10-09T00:51:50.876Z,99.99
2022-10-09T00:52:51.295Z,99.99
2022-10-09T00:53:50.800Z,99.99
2022-10-09T00:54:50.743Z,99.99
2022-10-09T00:55:50.700Z,99.99
2022-10-09T00:56:50.656Z,99.99
2022-10-09T00:57:50.618Z,99.99
2022-10-09T00:58:50.574Z,99.99
2022-10-09T00:59:50.543Z,99.99
2022-10-09T01:00:50.487Z,99.99
2022-10-09T01:01:50.522Z,99.99
2022-10-09T01:02:50.727Z,99.99
2022-10-09T01:03:50.356Z,99.99
2022-10-09T01:04:50.326Z,99.99
2022-10-09T01:05:50.272Z,99.99
2022-10-09T01:06:50.226Z,99.99
2022-10-09T01:07:50.183Z,99.99
2022-10-09T01:08:50.139Z,99.99
2022-10-09T01:09:50.097Z,99.99
2022-10-09T01:10:50.065Z,99.99
2022-10-09T01:11:50.010Z,99.99
2022-10-09T01:12:50.241Z,99.99
2022-10-09T01:13:49.931Z,99.99
2022-10-09T01:14:49.880Z,99.99
2022-10-09T01:15:49.908Z,99.99
2022-10-09T01:16:49.809Z,99.99
2022-10-09T01:17:49.755Z,99.99
2022-10-09T01:18:49.712Z,99.99
2022-10-09T01:19:49.665Z,99.99
2022-10-09T01:20:49.628Z,99.99
2022-10-09T01:21:49.579Z,99.99
2022-10-09T01:22:49.813Z,99.99
2022-10-09T01:23:49.491Z,99.99
2022-10-09T01:24:49.461Z,99.99
2022-10-09T01:25:49.405Z,99.99
2022-10-09T01:26:49.362Z,99.99
2022-10-09T01:27:49.332Z,99.99
2022-10-09T01:28:49.276Z,99.99
2022-10-09T01:29:49.234Z,99.99
2022-10-09T01:30:49.245Z,99.99
2022-10-09T01:31:49.145Z,99.99
2022-10-09T01:32:49.392Z,99.99
2022-10-09T01:33:49.086Z,99.99
2022-10-09T01:34:49.020Z,99.99
2022-10-09T01:35:48.976Z,99.99
2022-10-09T01:36:48.935Z,99.99
2022-10-09T01:37:48.886Z,99.99
2022-10-09T01:38:48.846Z,99.99
2022-10-09T01:39:48.810Z,99.99
2022-10-09T01:40:48.758Z,99.99
2022-10-09T01:41:48.715Z,99.99
2022-10-09T01:42:48.947Z,99.99
2022-10-09T01:43:48.633Z,99.99
2022-10-09T01:44:48.585Z,99.99
2022-10-09T01:45:48.551Z,99.99
2022-10-09T01:46:48.502Z,99.99
2022-10-09T01:47:48.454Z,99.99
2022-10-09T01:48:48.411Z,99.99
2022-10-09T01:49:48.371Z,99.99
2022-10-09T01:50:48.325Z,99.99
2022-10-09T01:51:48.291Z,99.99
2022-10-09T01:52:48.547Z,99.99
2022-10-09T01:53:48.202Z,99.99
2022-10-09T01:54:48.153Z,99.99
2022-10-09T01:55:48.106Z,99.99
2022-10-09T01:56:48.066Z,99.99
2022-10-09T01:57:48.033Z,99.99
2022-10-09T01:58:47.999Z,99.99
2022-10-09T01:59:47.935Z,99.99
2022-10-09T02:00:47.912Z,99.99
2022-10-09T02:01:47.924Z,99.99
2022-10-09T02:02:48.241Z,99.99
2022-10-09T02:03:47.773Z,99.99
2022-10-09T02:04:47.733Z,99.99
2022-10-09T02:05:47.681Z,99.99
2022-10-09T02:06:47.632Z,99.99
2022-10-09T02:07:47.589Z,99.99
2022-10-09T02:08:47.549Z,99.99
2022-10-09T02:09:47.517Z,99.99
2022-10-09T02:10:47.459Z,99.99
2022-10-09T02:11:47.413Z,99.99
2022-10-09T02:12:47.599Z,99.99
2022-10-09T02:13:47.329Z,99.99
2022-10-09T02:14:47.287Z,99.99
2022-10-09T02:15:47.329Z,99.99
2022-10-09T02:16:47.199Z,99.99
2022-10-09T02:17:47.155Z,99.99
2022-10-09T02:18:47.122Z,99.99
2022-10-09T02:19:47.067Z,99.99
2022-10-09T02:20:47.027Z,99.99
2022-10-09T02:21:48.652Z,99.99
2022-10-09T02:22:47.205Z,99.99
2022-10-09T02:23:46.894Z,99.99
2022-10-09T02:24:46.855Z,99.99
2022-10-09T02:25:46.811Z,99.99
2022-10-09T02:26:46.767Z,99.99
2022-10-09T02:27:46.734Z,99.99
2022-10-09T02:28:46.702Z,99.99
2022-10-09T02:29:46.637Z,99.99
2022-10-09T02:30:46.659Z,99.99
2022-10-09T02:31:46.548Z,99.99
2022-10-09T02:32:46.888Z,99.99
2022-10-09T02:33:46.462Z,99.99
2022-10-09T02:34:46.427Z,99.99
2022-10-09T02:35:46.373Z,99.99
2022-10-09T02:36:46.338Z,99.99
2022-10-09T02:37:46.287Z,99.99
2022-10-09T02:38:46.270Z,99.99
2022-10-09T02:39:46.203Z,99.99
2022-10-09T02:40:46.206Z,99.99
2022-10-09T02:41:46.113Z,99.99
2022-10-09T02:42:46.240Z,99.99
2022-10-09T02:43:46.025Z,99.99
2022-10-09T02:44:45.996Z,99.99
2022-10-09T02:45:45.940Z,99.99
2022-10-09T02:46:45.960Z,99.99
2022-10-09T02:47:45.866Z,99.99
2022-10-09T02:48:45.810Z,99.99
2022-10-09T02:49:45.766Z,99.99
2022-10-09T02:50:45.722Z,99.99
2022-10-09T02:51:45.679Z,99.99
2022-10-09T02:52:45.812Z,99.99
2022-10-09T02:53:45.611Z,99.99
2022-10-09T02:54:56.782Z,99.99
2022-10-09T02:55:45.505Z,99.99
2022-10-09T02:56:45.464Z,99.99
2022-10-09T02:57:45.417Z,99.99
2022-10-09T02:58:45.375Z,99.99
2022-10-09T02:59:45.343Z,99.99
2022-10-09T03:00:45.288Z,99.99
2022-10-09T03:01:45.358Z,99.99
2022-10-09T03:02:45.398Z,99.99
2022-10-09T03:03:45.159Z,99.99
2022-10-09T03:04:45.126Z,99.99
2022-10-09T03:05:45.084Z,99.99
2022-10-09T03:06:45.024Z,99.99
2022-10-09T03:07:44.982Z,99.99
2022-10-09T03:08:44.939Z,99.99
2022-10-09T03:09:44.896Z,99.99
2022-10-09T03:10:44.854Z,99.99
2022-10-09T03:11:44.819Z,99.99
2022-10-09T03:12:44.764Z,99.99
2022-10-09T03:13:44.720Z,99.99
2022-10-09T03:14:44.678Z,99.99
2022-10-09T03:15:44.688Z,99.99
2022-10-09T03:16:44.593Z,99.99
2022-10-09T03:17:44.558Z,99.99
2022-10-09T03:18:44.509Z,99.99
2022-10-09T03:19:44.460Z,99.99
2022-10-09T03:20:44.417Z,99.99
2022-10-09T03:21:44.374Z,99.99
2022-10-09T03:22:44.340Z,99.99
2022-10-09T03:23:44.304Z,99.99
2022-10-09T03:24:44.254Z,99.99
2022-10-09T03:25:44.199Z,99.99
2022-10-09T03:26:44.157Z,99.99
2022-10-09T03:27:44.110Z,99.99
2022-10-09T03:28:44.123Z,99.99
2022-10-09T03:29:44.025Z,99.99
2022-10-09T03:30:43.981Z,99.99
2022-10-09T03:31:52.566Z,99.99
2022-10-09T03:32:43.915Z,99.99
2022-10-09T03:33:43.850Z,99.99
2022-10-09T03:34:43.818Z,99.99
2022-10-09T03:35:43.762Z,99.99
2022-10-09T03:36:43.719Z,99.99
2022-10-09T03:37:43.679Z,99.99
2022-10-09T03:38:43.640Z,99.99
2022-10-09T03:39:43.611Z,99.99
2022-10-09T03:40:43.553Z,99.99
2022-10-09T03:41:43.508Z,99.99
2022-10-09T03:42:43.461Z,99.99
2022-10-09T03:43:43.414Z,99.99
2022-10-09T03:44:43.380Z,99.99
2022-10-09T03:45:43.337Z,99.99
2022-10-09T03:46:44.267Z,99.99
2022-10-09T03:47:43.376Z,99.99
2022-10-09T03:48:43.273Z,99.99
2022-10-09T03:49:43.150Z,99.99
2022-10-09T03:50:43.169Z,99.99
2022-10-09T03:51:43.076Z,99.99
2022-10-09T03:52:43.038Z,99.99
2022-10-09T03:53:43.007Z,99.99
2022-10-09T03:54:42.937Z,99.99
2022-10-09T03:55:42.897Z,99.99
2022-10-09T03:56:42.847Z,99.99
2022-10-09T03:57:42.815Z,99.99
2022-10-09T03:58:42.761Z,99.99
2022-10-09T03:59:42.823Z,99.99
2022-10-09T04:00:42.693Z,99.99
2022-10-09T04:01:42.700Z,99.99
2022-10-09T04:02:42.619Z,99.99
2022-10-09T04:03:42.549Z,99.99
2022-10-09T04:04:42.498Z,99.99
2022-10-09T04:05:42.454Z,99.99
2022-10-09T04:06:42.415Z,99.99
2022-10-09T04:07:42.366Z,99.99
2022-10-09T04:08:42.348Z,99.99
2022-10-09T04:09:42.277Z,99.99
2022-10-09T04:10:42.236Z,99.99
2022-10-09T04:11:42.191Z,99.99
2022-10-09T04:12:42.148Z,99.99
2022-10-09T04:13:42.104Z,99.99
2022-10-09T04:14:42.073Z,99.99
2022-10-09T04:15:42.018Z,99.99
2022-10-09T04:16:42.047Z,99.99
2022-10-09T04:17:41.928Z,99.99
2022-10-09T04:18:41.893Z,99.99
2022-10-09T04:19:41.843Z,99.99
2022-10-09T04:20:41.813Z,99.99
2022-10-09T04:21:41.767Z,99.99
2022-10-09T04:22:41.718Z,99.99
2022-10-09T04:23:41.669Z,99.99
2022-10-09T04:24:41.625Z,99.99
2022-10-09T04:25:41.591Z,99.99
2022-10-09T04:26:41.540Z,99.99
2022-10-09T04:27:41.506Z,99.99
2022-10-09T04:28:41.560Z,99.99
2022-10-09T04:29:41.407Z,99.99
2022-10-09T04:30:41.366Z,99.99
2022-10-09T04:31:41.393Z,99.99
2022-10-09T04:32:41.279Z,99.99
2022-10-09T04:33:41.244Z,99.99
2022-10-09T04:34:41.190Z,99.99
2022-10-09T04:35:41.145Z,99.99
2022-10-09T04:36:41.113Z,99.99
2022-10-09T04:37:41.059Z,99.99
2022-10-09T04:38:41.016Z,99.99
2022-10-09T04:39:40.986Z,99.99
2022-10-09T04:40:40.931Z,99.99
2022-10-09T04:41:40.886Z,99.99
2022-10-09T04:42:40.842Z,99.99
2022-10-09T04:43:40.803Z,99.99
2022-10-09T04:44:40.755Z,99.99
2022-10-09T04:45:40.944Z,99.99
2022-10-09T04:46:40.671Z,99.99
2022-10-09T04:47:40.624Z,99.99
2022-10-09T04:48:40.584Z,99.99
2022-10-09T04:49:40.537Z,99.99
2022-10-09T04:50:40.493Z,99.99
2022-10-09T04:51:40.467Z,99.99
2022-10-09T04:52:40.405Z,99.99
2022-10-09T04:53:40.365Z,99.99
2022-10-09T04:54:40.333Z,99.99
2022-10-09T04:55:40.275Z,99.99
2022-10-09T04:56:40.259Z,99.99
2022-10-09T04:57:40.190Z,99.99
2022-10-09T04:58:40.156Z,99.99
2022-10-09T04:59:40.102Z,99.99
2022-10-09T05:00:40.146Z,99.99
2022-10-09T05:01:40.133Z,99.99
2022-10-09T05:02:39.983Z,99.99
2022-10-09T05:03:39.930Z,99.99
2022-10-09T05:04:39.885Z,99.99
2022-10-09T05:05:39.840Z,99.99
2022-10-09T05:06:39.800Z,99.99
2022-10-09T05:07:39.752Z,99.99
2022-10-09T05:08:39.724Z,99.99
2022-10-09T05:09:39.666Z,99.99
2022-10-09T05:10:39.625Z,99.99
2022-10-09T05:11:42.670Z,99.99
2022-10-09T05:12:39.540Z,99.99
2022-10-09T05:13:39.490Z,99.99
2022-10-09T05:14:39.460Z,99.99
2022-10-09T05:15:39.408Z,99.99
2022-10-09T05:17:08.433Z,99.99
2022-10-09T05:17:39.351Z,99.99
2022-10-09T05:18:39.275Z,99.99
2022-10-09T05:19:39.246Z,99.99
2022-10-09T05:20:39.197Z,99.99
2022-10-09T05:21:39.154Z,99.99
2022-10-09T05:22:39.098Z,99.99
2022-10-09T05:23:39.054Z,99.99
2022-10-09T05:24:39.016Z,99.99
2022-10-09T05:25:38.969Z,99.99
2022-10-09T05:26:38.923Z,99.99
2022-10-09T05:27:38.890Z,99.99
2022-10-09T05:28:38.904Z,99.99
2022-10-09T05:29:38.795Z,99.99
2022-10-09T05:30:38.753Z,99.99
2022-10-09T05:31:38.762Z,99.99
2022-10-09T05:32:38.663Z,99.99
2022-10-09T05:33:38.632Z,99.99
2022-10-09T05:34:38.577Z,99.99
2022-10-09T05:35:38.540Z,99.99
2022-10-09T05:36:38.490Z,99.99
2022-10-09T05:37:38.446Z,99.99
2022-10-09T05:38:38.399Z,99.99
2022-10-09T05:39:38.378Z,99.99
2022-10-09T05:40:38.313Z,99.99
2022-10-09T05:41:38.280Z,99.99
2022-10-09T05:42:38.227Z,99.99
2022-10-09T05:43:38.182Z,99.99
2022-10-09T05:44:38.138Z,99.99
2022-10-09T05:45:38.164Z,99.99
2022-10-09T05:46:38.051Z,99.99
2022-10-09T05:47:38.007Z,99.99
2022-10-09T05:48:37.963Z,99.99
2022-10-09T05:49:37.922Z,99.99
2022-10-09T05:50:37.876Z,99.99
2022-10-09T05:51:37.861Z,99.99
2022-10-09T05:52:37.789Z,99.99
2022-10-09T05:53:37.746Z,99.99
2022-10-09T05:54:37.706Z,99.99
2022-10-09T05:55:37.658Z,99.99
2022-10-09T05:56:37.626Z,99.99
2022-10-09T05:57:37.575Z,99.99
2022-10-09T05:58:37.526Z,99.99
2022-10-09T05:59:37.485Z,99.99
2022-10-09T06:00:37.439Z,99.99
2022-10-09T06:01:37.582Z,99.99
2022-10-09T06:02:37.452Z,99.99
2022-10-09T06:03:37.310Z,99.99
2022-10-09T06:04:37.270Z,99.99
2022-10-09T06:05:37.222Z,99.99
2022-10-09T06:06:37.178Z,99.99
2022-10-09T06:07:37.157Z,99.99
2022-10-09T06:08:37.093Z,99.99
2022-10-09T06:09:37.046Z,99.99
2022-10-09T06:10:37.015Z,99.99
2022-10-09T06:11:36.959Z,99.99
2022-10-09T06:12:36.915Z,99.99
2022-10-09T06:13:36.877Z,99.99
2022-10-09T06:14:36.833Z,99.99
2022-10-09T06:15:36.787Z,99.99
2022-10-09T06:16:36.818Z,99.99
2022-10-09T06:17:36.699Z,99.99
2022-10-09T06:18:36.673Z,99.99
2022-10-09T06:19:36.623Z,99.99
2022-10-09T06:20:36.576Z,99.99
2022-10-09T06:21:36.527Z,99.99
2022-10-09T06:22:36.488Z,99.99
2022-10-09T06:23:36.438Z,99.99
2022-10-09T06:24:36.405Z,99.99
2022-10-09T06:25:37.329Z,99.99
2022-10-09T06:26:36.308Z,99.99
2022-10-09T06:27:36.288Z,99.99
2022-10-09T06:28:36.273Z,99.99
2022-10-09T06:29:36.192Z,99.99
2022-10-09T06:30:38.683Z,99.99
2022-10-09T06:31:36.094Z,99.99
2022-10-09T06:32:36.051Z,99.99
2022-10-09T06:33:36.012Z,99.99
2022-10-09T06:34:35.978Z,99.24
2022-10-09T06:35:35.925Z,96.83
2022-10-09T06:36:35.888Z,96.17
2022-10-09T06:37:35.841Z,95.41
2022-10-09T06:38:35.796Z,93.26
2022-10-09T06:39:35.776Z,91.17
2022-10-09T06:40:35.824Z,92.55
2022-10-09T06:41:35.680Z,91.01
2022-10-09T06:42:35.631Z,91.83
2022-10-09T06:43:35.605Z,89.94
2022-10-09T06:44:35.553Z,89.33
2022-10-09T06:45:35.512Z,89.97
2022-10-09T06:46:35.534Z,88.33
2022-10-09T06:47:35.432Z,87.00
2022-10-09T06:48:35.388Z,87.51
2022-10-09T06:49:35.353Z,87.20
2022-10-09T06:50:35.315Z,87.92
2022-10-09T06:51:35.269Z,87.47
2022-10-09T06:52:35.240Z,87.67
2022-10-09T06:53:35.190Z,85.28
2022-10-09T06:54:35.149Z,85.18
2022-10-09T06:55:35.111Z,85.18
2022-10-09T06:56:35.070Z,84.88
2022-10-09T06:57:35.033Z,85.53
2022-10-09T06:58:35.009Z,85.32
2022-10-09T06:59:34.966Z,85.16
2022-10-09T07:00:34.911Z,86.69
2022-10-09T07:01:34.941Z,86.18
2022-10-09T07:02:34.887Z,86.85
2022-10-09T07:03:34.800Z,85.12
2022-10-09T07:04:34.756Z,86.44
2022-10-09T07:05:34.735Z,86.14
2022-10-09T07:06:34.688Z,85.42
2022-10-09T07:07:34.652Z,86.00
2022-10-09T07:08:34.605Z,85.69
2022-10-09T07:09:34.565Z,86.20
2022-10-09T07:10:34.531Z,86.61
2022-10-09T07:11:34.500Z,84.94
2022-10-09T07:12:34.450Z,85.65
2022-10-09T07:13:34.412Z,84.28
2022-10-09T07:14:34.374Z,83.94
2022-10-09T07:15:34.422Z,84.08
2022-10-09T07:16:34.307Z,83.09
2022-10-09T07:17:34.262Z,83.39
2022-10-09T07:18:34.254Z,83.59
2022-10-09T07:19:34.189Z,82.78
2022-10-09T07:20:34.150Z,84.92
2022-10-09T07:21:34.122Z,83.86
2022-10-09T07:22:34.073Z,86.21
2022-10-09T07:23:34.039Z,84.43
2022-10-09T07:24:33.998Z,84.23
2022-10-09T07:25:33.963Z,82.50
2022-10-09T07:26:33.926Z,81.99
2022-10-09T07:27:33.904Z,81.88
2022-10-09T07:28:33.927Z,81.79
2022-10-09T07:29:33.817Z,84.50
2022-10-09T07:30:33.807Z,82.80
2022-10-09T07:31:33.742Z,81.38
2022-10-09T07:32:33.702Z,82.82
2022-10-09T07:33:33.679Z,81.26
2022-10-09T07:34:33.640Z,80.45
2022-10-09T07:35:33.594Z,80.15
2022-10-09T07:36:33.571Z,80.85
2022-10-09T07:37:33.524Z,80.96
2022-10-09T07:38:33.487Z,82.12
2022-10-09T07:39:33.449Z,81.77
2022-10-09T07:40:33.415Z,81.84
2022-10-09T07:41:33.378Z,81.12
2022-10-09T07:42:33.360Z,83.93
2022-10-09T07:43:33.305Z,82.40
2022-10-09T07:44:33.268Z,80.74
2022-10-09T07:45:33.236Z,81.11
2022-10-09T07:46:34.209Z,79.59
2022-10-09T07:47:33.162Z,81.35
2022-10-09T07:48:33.150Z,80.30
2022-10-09T07:49:33.092Z,80.44
2022-10-09T07:50:33.055Z,81.11
2022-10-09T07:51:33.019Z,79.90
2022-10-09T07:52:32.984Z,79.69
2022-10-09T07:53:35.950Z,81.07
2022-10-09T07:54:32.926Z,78.77
2022-10-09T07:55:32.879Z,77.82
2022-10-09T07:56:32.855Z,76.03
2022-10-09T07:57:32.877Z,75.66
2022-10-09T07:58:32.778Z,77.52
2022-10-09T07:59:32.750Z,77.93
2022-10-09T08:00:32.718Z,79.38
2022-10-09T08:01:32.746Z,79.35
2022-10-09T08:02:32.665Z,78.74
2022-10-09T08:03:32.601Z,78.13
2022-10-09T08:04:32.565Z,78.80
2022-10-09T08:05:32.529Z,76.33
2022-10-09T08:06:32.508Z,76.40
2022-10-09T08:07:34.934Z,76.16
2022-10-09T08:08:32.427Z,75.85
2022-10-09T08:09:32.408Z,75.96
2022-10-09T08:10:32.355Z,76.16
2022-10-09T08:11:32.322Z,75.58
2022-10-09T08:12:32.287Z,72.68
2022-10-09T08:13:32.255Z,72.21
2022-10-09T08:14:32.228Z,71.33
2022-10-09T08:15:32.242Z,69.85
2022-10-09T08:16:32.152Z,70.19
2022-10-09T08:17:32.115Z,71.00
2022-10-09T08:18:32.081Z,71.30
2022-10-09T08:19:32.049Z,71.17
2022-10-09T08:20:32.022Z,72.64
2022-10-09T08:21:31.989Z,69.92
2022-10-09T08:22:31.943Z,69.65
2022-10-09T08:23:31.910Z,72.21
2022-10-09T08:24:31.893Z,71.64
2022-10-09T08:25:31.842Z,71.33
2022-10-09T08:26:31.822Z,71.80
2022-10-09T08:27:31.774Z,69.98
2022-10-09T08:28:31.777Z,69.89
2022-10-09T08:29:33.108Z,70.96
2022-10-09T08:30:31.677Z,69.48
2022-10-09T08:31:31.880Z,66.93
2022-10-09T08:32:31.606Z,69.28
2022-10-09T08:33:31.584Z,68.41
2022-10-09T08:34:31.540Z,66.73
2022-10-09T08:35:34.593Z,68.44
2022-10-09T08:36:31.480Z,66.33
2022-10-09T08:37:31.435Z,68.61
2022-10-09T08:38:46.516Z,68.81
2022-10-09T08:39:31.369Z,70.96
2022-10-09T08:40:31.348Z,69.15
2022-10-09T08:41:31.301Z,69.35
2022-10-09T08:42:31.270Z,69.75
2022-10-09T08:43:31.239Z,68.98
2022-10-09T08:44:31.241Z,68.30
2022-10-09T08:45:31.180Z,70.66
2022-10-09T08:46:31.172Z,70.42
2022-10-09T08:47:31.118Z,69.82
2022-10-09T08:48:31.075Z,70.76
2022-10-09T08:49:31.106Z,69.08
2022-10-09T08:50:31.032Z,68.44
2022-10-09T08:51:31.010Z,67.30
2022-10-09T08:52:30.935Z,68.04
2022-10-09T08:53:30.911Z,70.39
2022-10-09T08:54:30.964Z,68.61
2022-10-09T08:55:39.911Z,64.95
2022-10-09T08:56:30.799Z,66.16
2022-10-09T08:57:30.775Z,66.13
2022-10-09T08:58:30.736Z,65.12
2022-10-09T08:59:30.719Z,66.36
2022-10-09T09:00:30.670Z,67.80
2022-10-09T09:01:30.730Z,66.90
2022-10-09T09:02:30.675Z,68.71
2022-10-09T09:03:30.573Z,69.35
2022-10-09T09:04:30.537Z,66.30
2022-10-09T09:05:30.508Z,67.84
2022-10-09T09:06:30.475Z,68.01
2022-10-09T09:07:30.459Z,67.64
2022-10-09T09:08:30.407Z,64.95
2022-10-09T09:09:30.377Z,66.87
2022-10-09T09:10:30.344Z,66.90
2022-10-09T09:11:30.310Z,68.34
2022-10-09T09:12:30.458Z,67.54
2022-10-09T09:13:30.254Z,67.36
2022-10-09T09:14:30.208Z,69.65
2022-10-09T09:15:30.182Z,69.79
2022-10-09T09:16:30.183Z,70.89
2022-10-09T09:17:30.112Z,70.73
2022-10-09T09:18:30.091Z,71.10
2022-10-09T09:19:30.044Z,68.95
2022-10-09T09:20:30.030Z,69.12
2022-10-09T09:21:29.991Z,67.07
2022-10-09T09:22:29.951Z,67.31
2022-10-09T09:23:29.929Z,65.77
2022-10-09T09:24:29.897Z,65.97
2022-10-09T09:25:29.848Z,66.60
2022-10-09T09:26:29.900Z,66.71
2022-10-09T09:27:29.782Z,64.96
2022-10-09T09:28:29.791Z,64.83
2022-10-09T09:29:29.760Z,65.03
2022-10-09T09:30:29.701Z,64.09
2022-10-09T09:31:29.872Z,64.89
2022-10-09T09:32:29.616Z,66.13
2022-10-09T09:33:33.747Z,66.74
2022-10-09T09:34:29.553Z,64.99
2022-10-09T09:35:29.520Z,64.43
2022-10-09T09:36:29.502Z,65.73
2022-10-09T09:37:29.454Z,64.20
2022-10-09T09:38:29.419Z,64.96
2022-10-09T09:40:31.270Z,65.70
2022-10-09T09:40:38.094Z,66.30
2022-10-09T09:41:29.337Z,64.79
2022-10-09T09:42:29.400Z,66.33
2022-10-09T09:43:29.255Z,66.90
2022-10-09T09:44:29.223Z,67.07
2022-10-09T09:45:29.193Z,67.97
2022-10-09T09:46:29.465Z,66.71
2022-10-09T09:47:29.165Z,65.90
2022-10-09T09:48:29.091Z,66.00
2022-10-09T09:49:29.057Z,66.16
2022-10-09T09:50:47.055Z,66.77
2022-10-09T09:51:29.706Z,69.38
2022-10-09T09:52:28.990Z,69.09
2022-10-09T09:53:29.955Z,68.11
2022-10-09T09:54:28.952Z,65.42
2022-10-09T09:55:28.858Z,65.19
2022-10-09T09:56:28.910Z,65.59
2022-10-09T09:57:28.796Z,65.70
2022-10-09T09:58:28.771Z,65.12
2022-10-09T09:59:28.751Z,64.99
2022-10-09T10:00:28.765Z,64.79
2022-10-09T10:01:28.662Z,65.67
2022-10-09T10:02:28.690Z,65.53
2022-10-09T10:03:29.865Z,65.50
2022-10-09T10:04:28.577Z,65.09
2022-10-09T10:05:28.533Z,63.85
2022-10-09T10:06:28.495Z,63.73
2022-10-09T10:07:28.460Z,64.23
2022-10-09T10:08:28.427Z,62.52
2022-10-09T10:09:28.401Z,63.18
2022-10-09T10:10:28.395Z,64.59
2022-10-09T10:11:28.332Z,64.26
2022-10-09T10:12:28.313Z,64.19
2022-10-09T10:13:28.262Z,64.16
2022-10-09T10:14:28.231Z,63.85
2022-10-09T10:15:28.195Z,63.53
2022-10-09T10:16:28.216Z,63.96
2022-10-09T10:17:28.131Z,64.16
2022-10-09T10:18:28.108Z,63.65
2022-10-09T10:19:28.061Z,63.82
2022-10-09T10:20:28.040Z,62.82
2022-10-09T10:21:28.026Z,63.39
2022-10-09T10:22:27.969Z,65.22
2022-10-09T10:23:27.971Z,64.69
2022-10-09T10:24:27.896Z,64.26
2022-10-09T10:25:27.865Z,63.93
2022-10-09T10:26:27.850Z,62.92
2022-10-09T10:27:27.799Z,62.42
2022-10-09T10:28:27.835Z,62.49
2022-10-09T10:29:27.730Z,60.85
2022-10-09T10:30:27.775Z,62.55
2022-10-09T10:31:27.690Z,63.79
2022-10-09T10:32:27.632Z,63.96
2022-10-09T10:33:27.598Z,62.07
2022-10-09T10:34:27.579Z,63.59
2022-10-09T10:35:27.530Z,62.12
2022-10-09T10:36:27.501Z,61.85
2022-10-09T10:37:27.505Z,63.28
2022-10-09T10:38:27.445Z,62.88
2022-10-09T10:39:27.415Z,61.94
2022-10-09T10:40:27.366Z,62.82
2022-10-09T10:41:27.333Z,61.69
2022-10-09T10:42:27.302Z,61.71
2022-10-09T10:43:27.266Z,61.88
2022-10-09T10:44:27.237Z,60.55
2022-10-09T10:45:27.208Z,61.66
2022-10-09T10:46:27.205Z,60.55
2022-10-09T10:47:27.133Z,60.42
2022-10-09T10:48:27.105Z,60.42
2022-10-09T10:49:31.643Z,62.08
2022-10-09T10:50:27.036Z,62.29
2022-10-09T10:51:27.013Z,61.18
2022-10-09T10:52:26.977Z,60.38
2022-10-09T10:53:26.934Z,60.78
2022-10-09T10:54:26.903Z,60.71
2022-10-09T10:55:26.868Z,60.21
2022-10-09T10:56:26.834Z,61.38
2022-10-09T10:57:26.815Z,61.55
2022-10-09T10:58:26.780Z,58.64
2022-10-09T10:59:26.736Z,60.25
2022-10-09T11:00:26.707Z,58.77
2022-10-09T11:01:26.706Z,59.50
2022-10-09T11:02:26.643Z,60.51
2022-10-09T11:03:26.695Z,61.04
2022-10-09T11:04:26.573Z,59.50
2022-10-09T11:05:26.537Z,59.27
2022-10-09T11:06:26.505Z,59.38
2022-10-09T11:07:26.475Z,60.18
2022-10-09T11:08:26.459Z,58.07
2022-10-09T11:09:26.404Z,58.87
2022-10-09T11:10:26.370Z,59.58
2022-10-09T11:11:26.341Z,60.24
2022-10-09T11:12:46.649Z,62.27
2022-10-09T11:13:26.273Z,63.71
2022-10-09T11:14:26.258Z,61.67
2022-10-09T11:15:26.208Z,60.64
2022-10-09T11:16:26.193Z,59.10
2022-10-09T11:17:26.147Z,59.20
2022-10-09T11:18:26.107Z,58.87
2022-10-09T11:19:26.079Z,58.80
2022-10-09T11:20:26.056Z,60.74
2022-10-09T11:21:26.008Z,62.68
2022-10-09T11:22:25.981Z,61.24
2022-10-09T11:23:25.941Z,60.13
2022-10-09T11:24:25.909Z,61.17
2022-10-09T11:25:25.875Z,60.87
2022-10-09T11:26:25.858Z,61.50
2022-10-09T11:27:25.809Z,62.18
2022-10-09T11:28:25.849Z,61.87
2022-10-09T11:29:25.743Z,59.16
2022-10-09T11:30:25.721Z,58.86
2022-10-09T11:31:25.716Z,59.23
2022-10-09T11:32:25.647Z,58.22
2022-10-09T11:33:25.608Z,59.08
2022-10-09T11:34:25.578Z,61.10
2022-10-09T11:35:25.543Z,61.27
2022-10-09T11:36:25.533Z,59.83
2022-10-09T11:37:25.477Z,58.73
2022-10-09T11:38:25.447Z,60.24
2022-10-09T11:39:25.410Z,58.73
2022-10-09T11:40:25.378Z,58.93
2022-10-09T11:41:25.348Z,58.53
2022-10-09T11:42:25.326Z,59.20
2022-10-09T11:43:25.288Z,58.40
2022-10-09T11:44:25.270Z,58.86
2022-10-09T11:45:25.376Z,59.56
2022-10-09T11:46:25.181Z,59.26
2022-10-09T11:47:25.144Z,59.56
2022-10-09T11:48:25.113Z,58.75
2022-10-09T11:49:25.094Z,57.92
2022-10-09T11:50:25.051Z,59.03
2022-10-09T11:51:25.013Z,58.33
2022-10-09T11:52:24.983Z,59.06
2022-10-09T11:53:24.948Z,57.72
2022-10-09T11:54:24.916Z,56.92
2022-10-09T11:55:24.906Z,58.50
2022-10-09T11:56:24.848Z,58.53
2022-10-09T11:57:24.814Z,58.50
2022-10-09T11:58:24.783Z,59.50
2022-10-09T11:59:24.747Z,57.97
2022-10-09T12:00:24.716Z,58.57
2022-10-09T12:01:24.763Z,58.57
2022-10-09T12:02:24.692Z,58.33
2022-10-09T12:03:24.627Z,59.26
2022-10-09T12:04:43.502Z,60.09
2022-10-09T12:05:24.554Z,60.69
2022-10-09T12:06:24.517Z,59.99
2022-10-09T12:07:24.529Z,60.12
2022-10-09T12:08:24.452Z,60.29
2022-10-09T12:09:24.416Z,60.77
2022-10-09T12:10:24.386Z,59.16
2022-10-09T12:11:24.352Z,59.13
2022-10-09T12:12:24.322Z,58.93
2022-10-09T12:13:24.300Z,58.75
2022-10-09T12:14:24.257Z,59.66
2022-10-09T12:15:24.222Z,59.56
2022-10-09T12:16:24.243Z,60.27
2022-10-09T12:17:24.154Z,60.47
2022-10-09T12:18:24.125Z,58.75
2022-10-09T12:19:24.099Z,57.88
2022-10-09T12:20:24.061Z,58.75
2022-10-09T12:21:24.029Z,58.05
2022-10-09T12:22:23.990Z,58.48
2022-10-09T12:23:27.944Z,57.17
2022-10-09T12:24:23.935Z,56.49
2022-10-09T12:25:23.902Z,57.90
2022-10-09T12:26:23.858Z,58.28
2022-10-09T12:27:23.825Z,58.61
2022-10-09T12:28:23.852Z,59.28
2022-10-09T12:29:23.756Z,59.28
2022-10-09T12:30:23.724Z,60.63
2022-10-09T12:31:23.760Z,59.72
2022-10-09T12:32:23.671Z,58.81
2022-10-09T12:33:23.627Z,57.40
2022-10-09T12:34:23.591Z,58.34
2022-10-09T12:35:23.557Z,58.84
2022-10-09T12:36:23.527Z,59.24
2022-10-09T12:37:23.505Z,57.93
2022-10-09T12:38:23.460Z,57.83
2022-10-09T12:39:23.426Z,59.34
2022-10-09T12:40:23.396Z,60.75
2022-10-09T12:41:23.360Z,59.64
2022-10-09T12:42:23.390Z,56.92
2022-10-09T12:43:23.303Z,56.92
2022-10-09T12:44:23.260Z,56.85
2022-10-09T12:45:23.224Z,59.17
2022-10-09T12:46:23.226Z,58.67
2022-10-09T12:47:23.159Z,57.65
2022-10-09T12:48:23.147Z,58.16
2022-10-09T12:49:23.095Z,57.86
2022-10-09T12:50:23.061Z,58.56
2022-10-09T12:51:23.024Z,57.89
2022-10-09T12:52:22.995Z,58.69